createdAt,value
2022-11-04T00:05:21.183Z,16.13
2022-11-04T00:11:01.741Z,20.90
2022-11-04T00:16:42.530Z,15.77
2022-11-04T00:22:23.034Z,14.07
2022-11-04T00:28:04.044Z,20.20
2022-11-04T00:33:26.141Z,15.33
2022-11-04T00:38:48.468Z,15.47
2022-11-04T00:44:10.838Z,15.13
2022-11-04T00:49:32.883Z,13.97
2022-11-04T00:54:55.257Z,16.53
2022-11-04T01:00:17.466Z,24.00
2022-11-04T01:05:39.951Z,14.87
2022-11-04T01:11:03.705Z,13.57
2022-11-04T01:21:53.797Z,14.10
2022-11-04T01:27:16.108Z,18.30
2022-11-04T01:32:38.557Z,17.07
2022-11-04T01:38:00.694Z,14.60
2022-11-04T01:43:23.848Z,15.47
2022-11-04T01:48:46.569Z,14.80
2022-11-04T01:54:10.659Z,14.13
2022-11-04T01:59:38.926Z,21.37
2022-11-04T02:05:01.574Z,20.77
2022-11-04T02:10:28.133Z,14.57
2022-11-04T02:16:14.972Z,17.37
2022-11-04T02:22:10.139Z,17.70
2022-11-04T02:27:47.736Z,14.80
2022-11-04T02:33:25.321Z,18.87
2022-11-04T02:39:02.108Z,17.50
2022-11-04T02:44:38.083Z,17.47
2022-11-04T02:50:14.483Z,16.50
2022-11-04T02:55:45.663Z,17.77
2022-11-04T03:01:12.093Z,13.67
2022-11-04T03:06:36.554Z,14.77
2022-11-04T03:12:09.522Z,16.23
2022-11-04T03:17:46.485Z,17.37
2022-11-04T03:23:11.141Z,21.57
2022-11-04T03:29:08.002Z,22.50
2022-11-04T03:34:31.492Z,17.30
2022-11-04T03:39:54.694Z,17.70
2022-11-04T03:45:16.978Z,22.97
2022-11-04T03:50:44.953Z,23.67
2022-11-04T03:56:29.137Z,16.13
2022-11-04T04:02:03.445Z,20.13
2022-11-04T04:07:44.822Z,19.97
2022-11-04T04:13:27.901Z,15.47
2022-11-04T04:18:55.817Z,20.80
2022-11-04T04:24:43.210Z,16.80
2022-11-04T04:30:07.762Z,15.17
2022-11-04T04:35:43.590Z,24.73
2022-11-04T04:41:41.629Z,20.13
2022-11-04T04:47:04.800Z,20.47
2022-11-04T04:52:36.980Z,15.70
2022-11-04T04:57:59.771Z,17.83
2022-11-04T05:03:21.906Z,20.33
2022-11-04T05:08:44.732Z,18.47
2022-11-04T05:14:07.046Z,16.27
2022-11-04T05:19:29.333Z,24.63
2022-11-04T05:24:51.729Z,21.47
2022-11-04T05:30:14.070Z,23.10
2022-11-04T05:35:36.387Z,23.73
2022-11-04T05:40:58.818Z,23.97
2022-11-04T05:46:21.810Z,19.93
2022-11-04T05:51:44.588Z,21.77
2022-11-04T05:57:06.649Z,23.07
2022-11-04T06:02:29.287Z,21.17
2022-11-04T06:07:51.753Z,24.37
2022-11-04T06:13:14.246Z,23.57
2022-11-04T06:18:36.567Z,22.00
2022-11-04T06:23:59.956Z,23.73
2022-11-04T06:29:22.110Z,21.73
2022-11-04T06:34:45.349Z,23.00
2022-11-04T06:40:08.394Z,24.57
2022-11-04T06:45:30.755Z,24.03
2022-11-04T06:50:53.587Z,26.13
2022-11-04T06:56:16.066Z,23.93
2022-11-04T07:01:38.346Z,20.53
2022-11-04T07:07:00.633Z,19.53
2022-11-04T07:12:24.770Z,21.03
2022-11-04T07:17:47.198Z,17.43
2022-11-04T07:23:09.717Z,23.53
2022-11-04T07:28:32.976Z,29.60
2022-11-04T07:33:55.150Z,21.90
2022-11-04T07:39:17.418Z,19.80
2022-11-04T07:44:39.927Z,21.67
2022-11-04T07:50:08.005Z,20.07
2022-11-04T07:55:32.954Z,21.17
2022-11-04T08:01:03.857Z,23.10
2022-11-04T08:06:26.197Z,26.87
2022-11-04T08:11:48.762Z,19.97
2022-11-04T08:17:11.245Z,24.67
2022-11-04T08:22:34.526Z,19.13
2022-11-04T08:28:00.660Z,18.43
2022-11-04T08:33:28.194Z,23.50
2022-11-04T08:38:51.336Z,21.67
2022-11-04T08:44:14.690Z,25.63
2022-11-04T08:49:42.004Z,22.23
2022-11-04T08:55:04.589Z,24.73
2022-11-04T09:00:27.233Z,22.97
2022-11-04T09:05:49.387Z,19.37
2022-11-04T09:11:13.496Z,22.70
2022-11-04T09:16:37.010Z,24.23
2022-11-04T09:21:59.281Z,24.70
2022-11-04T09:27:21.477Z,22.77
2022-11-04T09:32:46.462Z,25.93
2022-11-04T09:38:12.413Z,21.73
2022-11-04T09:43:41.566Z,18.90
2022-11-04T09:49:08.993Z,20.87
2022-11-04T09:54:47.041Z,22.27
2022-11-04T10:00:16.202Z,21.70
2022-11-04T10:05:52.349Z,18.37
2022-11-04T10:11:23.645Z,16.13
2022-11-04T10:17:01.478Z,23.07
2022-11-04T10:22:34.651Z,13.33
2022-11-04T10:27:59.394Z,13.60
2022-11-04T10:33:33.050Z,11.30
2022-11-04T10:38:56.465Z,17.50
2022-11-04T10:44:26.345Z,10.00
2022-11-04T10:50:34.371Z,10.10
2022-11-04T10:56:15.353Z,9.37
2022-11-04T11:01:38.323Z,8.70
2022-11-04T11:07:07.067Z,8.37
2022-11-04T11:12:50.665Z,10.97
2022-11-04T11:18:16.658Z,11.03
2022-11-04T11:23:47.460Z,9.97
2022-11-04T11:29:12.027Z,11.37
2022-11-04T11:34:39.079Z,10.30
2022-11-04T11:40:01.784Z,7.50
2022-11-04T11:45:25.513Z,9.40
2022-11-04T11:50:58.749Z,8.57
2022-11-04T11:56:51.728Z,12.37
2022-11-04T12:02:28.601Z,10.03
2022-11-04T12:14:00.151Z,10.93
2022-11-04T12:19:27.101Z,10.03
2022-11-04T12:25:24.761Z,11.63
2022-11-04T12:31:11.545Z,13.00
2022-11-04T12:36:44.396Z,13.07
2022-11-04T12:42:21.201Z,13.43
2022-11-04T12:47:46.547Z,12.47
2022-11-04T12:53:29.950Z,16.03
2022-11-04T12:58:58.183Z,14.93
2022-11-04T13:04:29.782Z,17.13
2022-11-04T13:09:59.818Z,17.87
2022-11-04T13:15:29.011Z,16.80
2022-11-04T13:21:06.596Z,15.43
2022-11-04T13:26:29.214Z,17.70
2022-11-04T13:31:54.422Z,16.53
2022-11-04T13:37:57.714Z,19.67
2022-11-04T13:43:39.604Z,16.60
2022-11-04T13:49:32.359Z,15.20
2022-11-04T13:54:58.905Z,17.30
2022-11-04T14:00:29.226Z,16.97
2022-11-04T14:06:00.520Z,18.60
2022-11-04T14:11:23.053Z,18.67
2022-11-04T14:16:46.179Z,21.90
2022-11-04T14:22:15.171Z,19.77
2022-11-04T14:27:41.689Z,19.10
2022-11-04T14:33:18.940Z,20.07
2022-11-04T14:38:42.560Z,22.33
2022-11-04T14:44:28.522Z,20.03
2022-11-04T14:50:01.607Z,18.47
2022-11-04T14:55:28.199Z,19.07
2022-11-04T15:00:50.505Z,18.90
2022-11-04T15:06:13.570Z,15.73
2022-11-04T15:11:58.420Z,19.50
2022-11-04T15:17:24.471Z,19.13
2022-11-04T15:22:46.942Z,23.97
2022-11-04T15:28:28.384Z,23.90
2022-11-04T15:33:54.298Z,19.83
2022-11-04T15:39:24.709Z,22.43
2022-11-04T15:44:51.010Z,18.90
2022-11-04T15:50:23.522Z,18.53
2022-11-04T15:55:47.810Z,20.13
2022-11-04T16:01:15.235Z,22.93
2022-11-04T16:06:41.277Z,21.00
2022-11-04T16:12:06.989Z,19.63
2022-11-04T16:17:30.163Z,25.53
2022-11-04T16:23:04.076Z,26.40
2022-11-04T16:28:30.556Z,24.50
2022-11-04T16:33:52.772Z,27.80
2022-11-04T16:39:15.040Z,24.03
2022-11-04T16:44:37.811Z,24.03
2022-11-04T16:50:01.520Z,22.83
2022-11-04T16:55:25.253Z,24.83
2022-11-04T17:00:47.764Z,26.80
2022-11-04T17:06:12.716Z,29.73
2022-11-04T17:11:35.218Z,27.37
2022-11-04T17:17:00.092Z,25.80
2022-11-04T17:22:22.916Z,24.37
2022-11-04T17:27:45.196Z,25.63
2022-11-04T17:33:15.742Z,26.47
2022-11-04T17:38:38.032Z,26.70
2022-11-04T17:44:00.573Z,24.23
2022-11-04T17:49:24.932Z,24.80
2022-11-04T17:54:47.247Z,29.47
2022-11-04T18:00:10.509Z,23.40
2022-11-04T18:05:32.797Z,25.87
2022-11-04T18:11:03.184Z,20.63
2022-11-04T18:16:25.506Z,26.33
2022-11-04T18:21:47.978Z,22.63
2022-11-04T18:27:10.723Z,21.13
2022-11-04T18:32:33.014Z,26.73
2022-11-04T18:37:55.317Z,24.77
2022-11-04T18:43:17.694Z,24.23
2022-11-04T18:48:41.481Z,25.57
2022-11-04T18:54:05.462Z,24.77
2022-11-04T18:59:27.627Z,25.33
2022-11-04T19:04:51.354Z,25.33
2022-11-04T19:10:13.880Z,24.53
2022-11-04T19:15:36.190Z,22.90
2022-11-04T19:21:02.958Z,26.43
2022-11-04T19:26:33.702Z,32.10
2022-11-04T19:31:56.180Z,28.33
2022-11-04T19:37:18.852Z,25.37
2022-11-04T19:43:00.639Z,28.90
2022-11-04T19:48:26.656Z,26.50
2022-11-04T19:53:52.333Z,25.73
2022-11-04T19:59:16.135Z,24.03
2022-11-04T20:04:41.574Z,22.43
2022-11-04T20:10:06.087Z,26.20
2022-11-04T20:15:29.987Z,27.23
2022-11-04T20:20:52.830Z,23.93
2022-11-04T20:26:20.682Z,24.77
2022-11-04T20:31:45.359Z,26.60
2022-11-04T20:37:08.641Z,27.80
2022-11-04T20:42:32.676Z,25.70
2022-11-04T20:47:55.146Z,23.07
2022-11-04T20:53:17.653Z,28.87
2022-11-04T20:58:43.247Z,24.30
2022-11-04T21:04:08.708Z,27.13
2022-11-04T21:09:31.400Z,24.13
2022-11-04T21:14:53.996Z,27.30
2022-11-04T21:20:16.581Z,25.27
2022-11-04T21:25:44.647Z,25.60
2022-11-04T21:31:10.338Z,27.07
2022-11-04T21:36:33.284Z,23.63
2022-11-04T21:41:55.461Z,21.67
2022-11-04T21:47:18.996Z,26.93
2022-11-04T21:52:41.431Z,23.67
2022-11-04T21:58:03.539Z,22.83
2022-11-04T22:03:26.856Z,23.20
2022-11-04T22:08:54.214Z,22.07
2022-11-04T22:14:16.683Z,28.33
2022-11-04T22:19:38.806Z,23.63
2022-11-04T22:25:03.462Z,26.27
2022-11-04T22:30:26.026Z,30.13
2022-11-04T22:35:48.465Z,25.77
2022-11-04T22:41:14.255Z,28.27
2022-11-04T22:46:36.480Z,26.10
2022-11-04T22:51:58.598Z,23.83
2022-11-04T22:57:20.744Z,24.77
2022-11-04T23:02:43.491Z,26.17
2022-11-04T23:08:08.146Z,23.90
2022-11-04T23:13:49.313Z,21.03
2022-11-04T23:19:12.056Z,22.47
2022-11-04T23:24:55.873Z,23.13
2022-11-04T23:30:22.029Z,23.33
2022-11-04T23:36:06.173Z,22.20
2022-11-04T23:41:48.290Z,24.23
2022-11-04T23:47:30.028Z,25.10
2022-11-04T23:53:11.679Z,20.10
2022-11-04T23:58:53.195Z,20.07
